sensor_id;sensor_type;location;lat;lon;timestamp;P1;durP1;ratioP1;P2;durP2;ratioP2
30533;SDS011;17318;52.390;9.754;2023-04-16T00:02:17;30.40;;;17.67;;
30533;SDS011;17318;52.390;9.754;2023-04-16T00:04:43;35.03;;;17.73;;
30533;SDS011;17318;52.390;9.754;2023-04-16T00:07:09;29.50;;;17.80;;
30533;SDS011;17318;52.390;9.754;2023-04-16T00:09:35;31.17;;;17.67;;
30533;SDS011;17318;52.390;9.754;2023-04-16T00:12:01;29.38;;;17.95;;
30533;SDS011;17318;52.390;9.754;2023-04-16T00:14:26;32.33;;;17.75;;
30533;SDS011;17318;52.390;9.754;2023-04-16T00:16:53;29.10;;;17.08;;
30533;SDS011;17318;52.390;9.754;2023-04-16T00:19:19;32.20;;;18.55;;
30533;SDS011;17318;52.390;9.754;2023-04-16T00:21:45;34.58;;;18.45;;
30533;SDS011;17318;52.390;9.754;2023-04-16T00:24:10;29.63;;;17.55;;
30533;SDS011;17318;52.390;9.754;2023-04-16T00:26:36;34.20;;;19.10;;
30533;SDS011;17318;52.390;9.754;2023-04-16T00:29:02;29.00;;;19.45;;
30533;SDS011;17318;52.390;9.754;2023-04-16T00:31:28;33.05;;;19.02;;
30533;SDS011;17318;52.390;9.754;2023-04-16T00:33:57;32.15;;;19.02;;
30533;SDS011;17318;52.390;9.754;2023-04-16T00:36:24;32.83;;;18.63;;
30533;SDS011;17318;52.390;9.754;2023-04-16T00:38:51;36.88;;;19.38;;
30533;SDS011;17318;52.390;9.754;2023-04-16T00:41:17;36.45;;;20.27;;
30533;SDS011;17318;52.390;9.754;2023-04-16T00:43:43;39.78;;;20.58;;
30533;SDS011;17318;52.390;9.754;2023-04-16T00:46:09;38.47;;;20.08;;
30533;SDS011;17318;52.390;9.754;2023-04-16T00:48:36;36.33;;;20.05;;
30533;SDS011;17318;52.390;9.754;2023-04-16T00:51:04;36.03;;;21.10;;
30533;SDS011;17318;52.390;9.754;2023-04-16T00:53:31;33.03;;;19.40;;
30533;SDS011;17318;52.390;9.754;2023-04-16T00:55:58;33.40;;;20.35;;
30533;SDS011;17318;52.390;9.754;2023-04-16T00:58:24;37.63;;;21.33;;
30533;SDS011;17318;52.390;9.754;2023-04-16T01:00:50;37.45;;;21.50;;
30533;SDS011;17318;52.390;9.754;2023-04-16T01:03:16;34.70;;;19.98;;
30533;SDS011;17318;52.390;9.754;2023-04-16T01:05:42;33.33;;;19.20;;
30533;SDS011;17318;52.390;9.754;2023-04-16T01:08:16;34.22;;;20.92;;
30533;SDS011;17318;52.390;9.754;2023-04-16T01:10:43;36.97;;;20.52;;
30533;SDS011;17318;52.390;9.754;2023-04-16T01:13:09;40.40;;;21.35;;
30533;SDS011;17318;52.390;9.754;2023-04-16T01:15:35;37.67;;;20.50;;
30533;SDS011;17318;52.390;9.754;2023-04-16T01:18:01;36.28;;;21.05;;
30533;SDS011;17318;52.390;9.754;2023-04-16T01:20:27;35.58;;;19.75;;
30533;SDS011;17318;52.390;9.754;2023-04-16T01:22:53;36.60;;;20.00;;
30533;SDS011;17318;52.390;9.754;2023-04-16T01:25:19;35.25;;;21.00;;
30533;SDS011;17318;52.390;9.754;2023-04-16T01:27:48;34.92;;;19.80;;
30533;SDS011;17318;52.390;9.754;2023-04-16T01:30:14;40.65;;;22.08;;
30533;SDS011;17318;52.390;9.754;2023-04-16T01:32:40;31.45;;;19.05;;
30533;SDS011;17318;52.390;9.754;2023-04-16T01:35:05;38.65;;;19.45;;
30533;SDS011;17318;52.390;9.754;2023-04-16T01:37:31;35.60;;;20.25;;
30533;SDS011;17318;52.390;9.754;2023-04-16T01:39:57;42.08;;;21.33;;
30533;SDS011;17318;52.390;9.754;2023-04-16T01:42:23;37.42;;;20.83;;
30533;SDS011;17318;52.390;9.754;2023-04-16T01:44:49;42.50;;;21.50;;
30533;SDS011;17318;52.390;9.754;2023-04-16T01:47:14;33.70;;;20.65;;
30533;SDS011;17318;52.390;9.754;2023-04-16T01:49:41;42.13;;;21.38;;
30533;SDS011;17318;52.390;9.754;2023-04-16T01:52:09;33.92;;;20.55;;
30533;SDS011;17318;52.390;9.754;2023-04-16T01:54:35;37.47;;;21.35;;
30533;SDS011;17318;52.390;9.754;2023-04-16T01:57:01;44.50;;;21.45;;
30533;SDS011;17318;52.390;9.754;2023-04-16T01:59:27;39.50;;;21.88;;
30533;SDS011;17318;52.390;9.754;2023-04-16T02:01:52;39.40;;;20.52;;
30533;SDS011;17318;52.390;9.754;2023-04-16T02:04:18;36.10;;;20.75;;
30533;SDS011;17318;52.390;9.754;2023-04-16T02:06:44;40.28;;;21.35;;
30533;SDS011;17318;52.390;9.754;2023-04-16T02:09:10;38.42;;;21.35;;
30533;SDS011;17318;52.390;9.754;2023-04-16T02:11:35;37.90;;;20.88;;
30533;SDS011;17318;52.390;9.754;2023-04-16T02:14:01;36.47;;;22.25;;
30533;SDS011;17318;52.390;9.754;2023-04-16T02:16:26;37.53;;;21.88;;
30533;SDS011;17318;52.390;9.754;2023-04-16T02:18:52;41.13;;;22.05;;
30533;SDS011;17318;52.390;9.754;2023-04-16T02:21:18;38.78;;;21.05;;
30533;SDS011;17318;52.390;9.754;2023-04-16T02:23:44;42.50;;;22.27;;
30533;SDS011;17318;52.390;9.754;2023-04-16T02:26:12;42.13;;;22.13;;
30533;SDS011;17318;52.390;9.754;2023-04-16T02:28:37;41.10;;;21.92;;
30533;SDS011;17318;52.390;9.754;2023-04-16T02:31:03;38.08;;;21.45;;
30533;SDS011;17318;52.390;9.754;2023-04-16T02:33:29;36.90;;;22.30;;
30533;SDS011;17318;52.390;9.754;2023-04-16T02:35:56;41.75;;;22.50;;
30533;SDS011;17318;52.390;9.754;2023-04-16T02:38:21;42.67;;;21.83;;
30533;SDS011;17318;52.390;9.754;2023-04-16T02:40:47;40.05;;;21.17;;
30533;SDS011;17318;52.390;9.754;2023-04-16T02:43:13;39.17;;;20.88;;
30533;SDS011;17318;52.390;9.754;2023-04-16T02:45:38;42.50;;;22.02;;
30533;SDS011;17318;52.390;9.754;2023-04-16T02:48:04;37.83;;;21.25;;
30533;SDS011;17318;52.390;9.754;2023-04-16T02:50:32;38.13;;;21.23;;
30533;SDS011;17318;52.390;9.754;2023-04-16T02:52:58;42.13;;;21.23;;
30533;SDS011;17318;52.390;9.754;2023-04-16T02:55:24;39.85;;;22.08;;
30533;SDS011;17318;52.390;9.754;2023-04-16T02:57:49;43.72;;;21.88;;
30533;SDS011;17318;52.390;9.754;2023-04-16T03:00:17;43.80;;;22.93;;
30533;SDS011;17318;52.390;9.754;2023-04-16T03:02:43;42.38;;;22.13;;
30533;SDS011;17318;52.390;9.754;2023-04-16T03:05:09;43.20;;;22.25;;
30533;SDS011;17318;52.390;9.754;2023-04-16T03:07:35;40.28;;;21.60;;
30533;SDS011;17318;52.390;9.754;2023-04-16T03:10:03;38.08;;;22.08;;
30533;SDS011;17318;52.390;9.754;2023-04-16T03:12:30;39.85;;;20.58;;
30533;SDS011;17318;52.390;9.754;2023-04-16T03:14:55;43.85;;;22.20;;
30533;SDS011;17318;52.390;9.754;2023-04-16T03:17:21;38.90;;;21.58;;
30533;SDS011;17318;52.390;9.754;2023-04-16T03:19:47;47.20;;;23.05;;
30533;SDS011;17318;52.390;9.754;2023-04-16T03:22:14;45.65;;;23.13;;
30533;SDS011;17318;52.390;9.754;2023-04-16T03:24:40;49.20;;;23.38;;
30533;SDS011;17318;52.390;9.754;2023-04-16T03:27:06;45.40;;;23.02;;
30533;SDS011;17318;52.390;9.754;2023-04-16T03:29:31;44.50;;;21.40;;
30533;SDS011;17318;52.390;9.754;2023-04-16T03:31:57;45.10;;;23.02;;
30533;SDS011;17318;52.390;9.754;2023-04-16T03:34:23;41.72;;;21.75;;
30533;SDS011;17318;52.390;9.754;2023-04-16T03:36:48;42.47;;;21.73;;
30533;SDS011;17318;52.390;9.754;2023-04-16T03:39:14;42.38;;;21.33;;
30533;SDS011;17318;52.390;9.754;2023-04-16T03:41:40;34.03;;;21.60;;
30533;SDS011;17318;52.390;9.754;2023-04-16T03:44:05;40.50;;;20.83;;
30533;SDS011;17318;52.390;9.754;2023-04-16T03:46:31;45.60;;;22.48;;
30533;SDS011;17318;52.390;9.754;2023-04-16T03:48:57;45.72;;;21.77;;
30533;SDS011;17318;52.390;9.754;2023-04-16T03:51:22;46.70;;;22.77;;
30533;SDS011;17318;52.390;9.754;2023-04-16T03:53:49;45.95;;;24.35;;
30533;SDS011;17318;52.390;9.754;2023-04-16T03:56:15;42.90;;;22.08;;
30533;SDS011;17318;52.390;9.754;2023-04-16T03:58:40;39.30;;;21.70;;
30533;SDS011;17318;52.390;9.754;2023-04-16T04:01:06;41.45;;;21.40;;
30533;SDS011;17318;52.390;9.754;2023-04-16T04:03:32;40.33;;;21.42;;
30533;SDS011;17318;52.390;9.754;2023-04-16T04:05:57;38.70;;;21.88;;
30533;SDS011;17318;52.390;9.754;2023-04-16T04:08:23;38.58;;;20.38;;
30533;SDS011;17318;52.390;9.754;2023-04-16T04:10:50;43.63;;;21.88;;
30533;SDS011;17318;52.390;9.754;2023-04-16T04:13:15;40.47;;;22.02;;
30533;SDS011;17318;52.390;9.754;2023-04-16T04:15:41;48.33;;;23.65;;
30533;SDS011;17318;52.390;9.754;2023-04-16T04:18:07;43.53;;;20.10;;
30533;SDS011;17318;52.390;9.754;2023-04-16T04:20:33;47.33;;;20.65;;
30533;SDS011;17318;52.390;9.754;2023-04-16T04:23:02;44.70;;;21.23;;
30533;SDS011;17318;52.390;9.754;2023-04-16T04:25:28;45.83;;;22.42;;
30533;SDS011;17318;52.390;9.754;2023-04-16T04:27:54;39.67;;;20.20;;
30533;SDS011;17318;52.390;9.754;2023-04-16T04:30:20;40.47;;;22.33;;
30533;SDS011;17318;52.390;9.754;2023-04-16T04:32:46;39.20;;;20.73;;
30533;SDS011;17318;52.390;9.754;2023-04-16T04:35:11;48.97;;;22.25;;
30533;SDS011;17318;52.390;9.754;2023-04-16T04:37:37;44.67;;;21.88;;
30533;SDS011;17318;52.390;9.754;2023-04-16T04:40:02;41.00;;;19.83;;
30533;SDS011;17318;52.390;9.754;2023-04-16T04:42:28;41.03;;;20.52;;
30533;SDS011;17318;52.390;9.754;2023-04-16T04:44:54;40.33;;;20.48;;
30533;SDS011;17318;52.390;9.754;2023-04-16T04:47:19;43.00;;;22.02;;
30533;SDS011;17318;52.390;9.754;2023-04-16T04:49:45;42.13;;;19.67;;
30533;SDS011;17318;52.390;9.754;2023-04-16T04:52:11;41.78;;;20.63;;
30533;SDS011;17318;52.390;9.754;2023-04-16T04:54:37;42.72;;;20.80;;
30533;SDS011;17318;52.390;9.754;2023-04-16T04:57:05;39.72;;;20.27;;
30533;SDS011;17318;52.390;9.754;2023-04-16T04:59:32;40.35;;;20.40;;
30533;SDS011;17318;52.390;9.754;2023-04-16T05:01:58;39.55;;;20.50;;
30533;SDS011;17318;52.390;9.754;2023-04-16T05:04:23;37.20;;;20.27;;
30533;SDS011;17318;52.390;9.754;2023-04-16T05:06:49;39.00;;;19.48;;
30533;SDS011;17318;52.390;9.754;2023-04-16T05:09:15;40.00;;;19.50;;
30533;SDS011;17318;52.390;9.754;2023-04-16T05:11:41;36.58;;;18.92;;
30533;SDS011;17318;52.390;9.754;2023-04-16T05:14:07;36.95;;;19.55;;
30533;SDS011;17318;52.390;9.754;2023-04-16T05:16:36;33.30;;;19.63;;
30533;SDS011;17318;52.390;9.754;2023-04-16T05:19:02;38.47;;;20.50;;
30533;SDS011;17318;52.390;9.754;2023-04-16T05:21:28;32.92;;;18.92;;
30533;SDS011;17318;52.390;9.754;2023-04-16T05:23:54;43.58;;;20.75;;
30533;SDS011;17318;52.390;9.754;2023-04-16T05:26:20;41.10;;;19.83;;
30533;SDS011;17318;52.390;9.754;2023-04-16T05:28:47;38.45;;;18.95;;
30533;SDS011;17318;52.390;9.754;2023-04-16T05:31:13;33.20;;;18.92;;
30533;SDS011;17318;52.390;9.754;2023-04-16T05:33:38;37.20;;;19.42;;
30533;SDS011;17318;52.390;9.754;2023-04-16T05:36:04;36.85;;;19.02;;
30533;SDS011;17318;52.390;9.754;2023-04-16T05:38:30;33.63;;;19.00;;
30533;SDS011;17318;52.390;9.754;2023-04-16T05:40:56;35.53;;;17.83;;
30533;SDS011;17318;52.390;9.754;2023-04-16T05:43:22;40.47;;;18.42;;
30533;SDS011;17318;52.390;9.754;2023-04-16T05:45:48;29.98;;;17.65;;
30533;SDS011;17318;52.390;9.754;2023-04-16T05:48:14;36.92;;;18.92;;
30533;SDS011;17318;52.390;9.754;2023-04-16T05:50:40;33.08;;;17.75;;
30533;SDS011;17318;52.390;9.754;2023-04-16T05:53:06;39.58;;;18.08;;
30533;SDS011;17318;52.390;9.754;2023-04-16T05:55:33;34.85;;;17.50;;
30533;SDS011;17318;52.390;9.754;2023-04-16T05:58:01;28.70;;;16.38;;
30533;SDS011;17318;52.390;9.754;2023-04-16T06:00:31;33.00;;;17.60;;
30533;SDS011;17318;52.390;9.754;2023-04-16T06:02:57;29.60;;;16.38;;
30533;SDS011;17318;52.390;9.754;2023-04-16T06:05:23;37.88;;;18.27;;
30533;SDS011;17318;52.390;9.754;2023-04-16T06:07:50;34.38;;;17.48;;
30533;SDS011;17318;52.390;9.754;2023-04-16T06:10:16;33.17;;;17.05;;
30533;SDS011;17318;52.390;9.754;2023-04-16T06:12:42;39.50;;;17.90;;
30533;SDS011;17318;52.390;9.754;2023-04-16T06:15:08;35.90;;;18.20;;
30533;SDS011;17318;52.390;9.754;2023-04-16T06:17:34;37.97;;;17.02;;
30533;SDS011;17318;52.390;9.754;2023-04-16T06:20:00;29.27;;;16.58;;
30533;SDS011;17318;52.390;9.754;2023-04-16T06:22:25;35.53;;;17.10;;
30533;SDS011;17318;52.390;9.754;2023-04-16T06:24:51;27.25;;;17.08;;
30533;SDS011;17318;52.390;9.754;2023-04-16T06:27:17;31.77;;;16.63;;
30533;SDS011;17318;52.390;9.754;2023-04-16T06:29:43;30.33;;;16.75;;
30533;SDS011;17318;52.390;9.754;2023-04-16T06:32:08;35.65;;;15.98;;
30533;SDS011;17318;52.390;9.754;2023-04-16T06:34:36;29.25;;;15.65;;
30533;SDS011;17318;52.390;9.754;2023-04-16T06:39:28;27.30;;;14.20;;
30533;SDS011;17318;52.390;9.754;2023-04-16T06:41:54;29.85;;;15.75;;
30533;SDS011;17318;52.390;9.754;2023-04-16T06:44:20;33.60;;;16.73;;
30533;SDS011;17318;52.390;9.754;2023-04-16T06:46:46;26.80;;;14.75;;
30533;SDS011;17318;52.390;9.754;2023-04-16T06:49:11;32.70;;;14.75;;
30533;SDS011;17318;52.390;9.754;2023-04-16T06:51:37;29.45;;;14.27;;
30533;SDS011;17318;52.390;9.754;2023-04-16T06:54:03;30.48;;;14.95;;
30533;SDS011;17318;52.390;9.754;2023-04-16T06:56:28;27.05;;;15.48;;
30533;SDS011;17318;52.390;9.754;2023-04-16T06:58:54;36.40;;;15.82;;
30533;SDS011;17318;52.390;9.754;2023-04-16T07:01:21;31.25;;;15.52;;
30533;SDS011;17318;52.390;9.754;2023-04-16T07:03:47;28.35;;;15.32;;
30533;SDS011;17318;52.390;9.754;2023-04-16T07:06:13;27.98;;;16.17;;
30533;SDS011;17318;52.390;9.754;2023-04-16T07:08:39;31.27;;;16.70;;
30533;SDS011;17318;52.390;9.754;2023-04-16T07:11:04;26.67;;;14.93;;
30533;SDS011;17318;52.390;9.754;2023-04-16T07:13:30;29.63;;;15.95;;
30533;SDS011;17318;52.390;9.754;2023-04-16T07:15:55;29.63;;;15.10;;
30533;SDS011;17318;52.390;9.754;2023-04-16T07:18:21;33.15;;;16.90;;
30533;SDS011;17318;52.390;9.754;2023-04-16T07:20:47;30.92;;;15.85;;
30533;SDS011;17318;52.390;9.754;2023-04-16T07:23:13;31.13;;;15.98;;
30533;SDS011;17318;52.390;9.754;2023-04-16T07:25:38;36.08;;;17.35;;
30533;SDS011;17318;52.390;9.754;2023-04-16T07:28:05;25.60;;;14.65;;
30533;SDS011;17318;52.390;9.754;2023-04-16T07:30:31;28.90;;;15.90;;
30533;SDS011;17318;52.390;9.754;2023-04-16T07:33:04;30.50;;;15.80;;
30533;SDS011;17318;52.390;9.754;2023-04-16T07:35:30;26.60;;;14.95;;
30533;SDS011;17318;52.390;9.754;2023-04-16T07:37:58;26.75;;;15.07;;
30533;SDS011;17318;52.390;9.754;2023-04-16T07:40:24;35.30;;;16.00;;
30533;SDS011;17318;52.390;9.754;2023-04-16T07:42:50;27.63;;;15.27;;
30533;SDS011;17318;52.390;9.754;2023-04-16T07:45:16;28.60;;;15.13;;
30533;SDS011;17318;52.390;9.754;2023-04-16T07:47:43;28.70;;;15.55;;
30533;SDS011;17318;52.390;9.754;2023-04-16T07:50:09;24.85;;;14.48;;
30533;SDS011;17318;52.390;9.754;2023-04-16T07:52:35;25.90;;;15.60;;
30533;SDS011;17318;52.390;9.754;2023-04-16T07:55:03;27.42;;;14.75;;
30533;SDS011;17318;52.390;9.754;2023-04-16T07:57:29;30.83;;;15.20;;
30533;SDS011;17318;52.390;9.754;2023-04-16T07:59:55;30.42;;;14.75;;
30533;SDS011;17318;52.390;9.754;2023-04-16T08:02:20;29.13;;;14.75;;
30533;SDS011;17318;52.390;9.754;2023-04-16T08:04:46;26.08;;;14.07;;
30533;SDS011;17318;52.390;9.754;2023-04-16T08:07:12;36.70;;;14.85;;
30533;SDS011;17318;52.390;9.754;2023-04-16T08:09:45;31.40;;;16.02;;
30533;SDS011;17318;52.390;9.754;2023-04-16T08:12:20;23.27;;;14.40;;
30533;SDS011;17318;52.390;9.754;2023-04-16T08:14:46;28.83;;;14.85;;
30533;SDS011;17318;52.390;9.754;2023-04-16T08:17:12;29.33;;;14.63;;
30533;SDS011;17318;52.390;9.754;2023-04-16T08:19:39;28.02;;;15.30;;
30533;SDS011;17318;52.390;9.754;2023-04-16T08:22:05;31.88;;;15.23;;
30533;SDS011;17318;52.390;9.754;2023-04-16T08:24:30;26.25;;;15.10;;
30533;SDS011;17318;52.390;9.754;2023-04-16T08:26:56;28.60;;;16.00;;
30533;SDS011;17318;52.390;9.754;2023-04-16T08:29:22;28.50;;;15.05;;
30533;SDS011;17318;52.390;9.754;2023-04-16T08:34:16;29.08;;;14.48;;
30533;SDS011;17318;52.390;9.754;2023-04-16T08:36:41;31.60;;;14.20;;
30533;SDS011;17318;52.390;9.754;2023-04-16T08:39:07;27.27;;;14.52;;
30533;SDS011;17318;52.390;9.754;2023-04-16T08:41:33;29.67;;;14.25;;
30533;SDS011;17318;52.390;9.754;2023-04-16T08:44:08;31.15;;;16.27;;
30533;SDS011;17318;52.390;9.754;2023-04-16T08:46:40;36.67;;;14.40;;
30533;SDS011;17318;52.390;9.754;2023-04-16T08:49:07;26.42;;;15.15;;
30533;SDS011;17318;52.390;9.754;2023-04-16T08:51:33;29.27;;;14.55;;
30533;SDS011;17318;52.390;9.754;2023-04-16T08:54:09;26.27;;;13.68;;
30533;SDS011;17318;52.390;9.754;2023-04-16T08:56:39;24.67;;;15.20;;
30533;SDS011;17318;52.390;9.754;2023-04-16T08:59:06;26.35;;;14.75;;
30533;SDS011;17318;52.390;9.754;2023-04-16T09:01:34;26.43;;;14.73;;
30533;SDS011;17318;52.390;9.754;2023-04-16T09:04:00;25.88;;;14.55;;
30533;SDS011;17318;52.390;9.754;2023-04-16T09:06:27;30.15;;;14.90;;
30533;SDS011;17318;52.390;9.754;2023-04-16T09:08:53;25.95;;;15.13;;
30533;SDS011;17318;52.390;9.754;2023-04-16T09:11:20;24.15;;;14.63;;
30533;SDS011;17318;52.390;9.754;2023-04-16T09:13:46;30.48;;;15.73;;
30533;SDS011;17318;52.390;9.754;2023-04-16T09:16:12;28.88;;;15.13;;
30533;SDS011;17318;52.390;9.754;2023-04-16T09:18:39;33.55;;;16.15;;
30533;SDS011;17318;52.390;9.754;2023-04-16T09:21:06;30.45;;;14.82;;
30533;SDS011;17318;52.390;9.754;2023-04-16T09:23:34;26.00;;;14.63;;
30533;SDS011;17318;52.390;9.754;2023-04-16T09:26:01;27.30;;;14.82;;
30533;SDS011;17318;52.390;9.754;2023-04-16T09:31:08;24.33;;;13.90;;
30533;SDS011;17318;52.390;9.754;2023-04-16T09:33:42;33.28;;;15.98;;
30533;SDS011;17318;52.390;9.754;2023-04-16T09:36:24;29.23;;;16.23;;
30533;SDS011;17318;52.390;9.754;2023-04-16T09:38:55;32.10;;;17.25;;
30533;SDS011;17318;52.390;9.754;2023-04-16T09:41:24;28.67;;;16.15;;
30533;SDS011;17318;52.390;9.754;2023-04-16T09:43:55;27.92;;;16.33;;
30533;SDS011;17318;52.390;9.754;2023-04-16T09:46:21;25.10;;;15.48;;
30533;SDS011;17318;52.390;9.754;2023-04-16T09:49:16;32.83;;;17.50;;
30533;SDS011;17318;52.390;9.754;2023-04-16T09:51:45;29.70;;;17.55;;
30533;SDS011;17318;52.390;9.754;2023-04-16T09:54:12;29.55;;;17.08;;
30533;SDS011;17318;52.390;9.754;2023-04-16T09:56:38;29.67;;;17.13;;
30533;SDS011;17318;52.390;9.754;2023-04-16T09:59:05;29.13;;;16.17;;
30533;SDS011;17318;52.390;9.754;2023-04-16T10:01:32;31.02;;;17.25;;
30533;SDS011;17318;52.390;9.754;2023-04-16T10:03:57;30.02;;;17.15;;
30533;SDS011;17318;52.390;9.754;2023-04-16T10:06:23;36.90;;;16.48;;
30533;SDS011;17318;52.390;9.754;2023-04-16T10:08:52;27.80;;;16.15;;
30533;SDS011;17318;52.390;9.754;2023-04-16T10:11:22;27.60;;;16.17;;
30533;SDS011;17318;52.390;9.754;2023-04-16T10:13:48;29.77;;;17.73;;
30533;SDS011;17318;52.390;9.754;2023-04-16T10:16:14;29.67;;;17.20;;
30533;SDS011;17318;52.390;9.754;2023-04-16T10:18:41;30.05;;;16.55;;
30533;SDS011;17318;52.390;9.754;2023-04-16T10:23:40;31.80;;;17.25;;
30533;SDS011;17318;52.390;9.754;2023-04-16T10:26:07;30.25;;;17.33;;
30533;SDS011;17318;52.390;9.754;2023-04-16T10:28:33;32.00;;;18.13;;
30533;SDS011;17318;52.390;9.754;2023-04-16T10:31:00;28.27;;;18.85;;
30533;SDS011;17318;52.390;9.754;2023-04-16T10:33:33;32.10;;;17.83;;
30533;SDS011;17318;52.390;9.754;2023-04-16T10:38:37;34.53;;;18.95;;
30533;SDS011;17318;52.390;9.754;2023-04-16T10:41:05;35.72;;;18.52;;
30533;SDS011;17318;52.390;9.754;2023-04-16T10:43:41;39.33;;;19.67;;
30533;SDS011;17318;52.390;9.754;2023-04-16T10:46:25;35.33;;;19.45;;
30533;SDS011;17318;52.390;9.754;2023-04-16T10:49:01;30.60;;;18.95;;
30533;SDS011;17318;52.390;9.754;2023-04-16T10:51:36;34.28;;;20.02;;
30533;SDS011;17318;52.390;9.754;2023-04-16T10:54:03;40.75;;;23.88;;
30533;SDS011;17318;52.390;9.754;2023-04-16T10:56:50;37.72;;;21.35;;
30533;SDS011;17318;52.390;9.754;2023-04-16T10:59:18;33.47;;;20.73;;
30533;SDS011;17318;52.390;9.754;2023-04-16T11:01:48;31.00;;;18.48;;
30533;SDS011;17318;52.390;9.754;2023-04-16T11:04:26;36.92;;;19.30;;
30533;SDS011;17318;52.390;9.754;2023-04-16T11:12:18;31.40;;;19.17;;
30533;SDS011;17318;52.390;9.754;2023-04-16T11:14:46;28.60;;;18.80;;
30533;SDS011;17318;52.390;9.754;2023-04-16T11:17:13;34.08;;;19.35;;
30533;SDS011;17318;52.390;9.754;2023-04-16T11:19:39;33.90;;;20.42;;
30533;SDS011;17318;52.390;9.754;2023-04-16T11:22:07;33.83;;;20.33;;
30533;SDS011;17318;52.390;9.754;2023-04-16T11:24:32;35.47;;;19.23;;
30533;SDS011;17318;52.390;9.754;2023-04-16T11:26:58;34.55;;;20.05;;
30533;SDS011;17318;52.390;9.754;2023-04-16T11:29:25;33.17;;;20.70;;
30533;SDS011;17318;52.390;9.754;2023-04-16T11:31:51;36.88;;;21.08;;
30533;SDS011;17318;52.390;9.754;2023-04-16T11:34:18;38.30;;;21.33;;
30533;SDS011;17318;52.390;9.754;2023-04-16T11:36:45;37.88;;;21.48;;
30533;SDS011;17318;52.390;9.754;2023-04-16T11:39:12;37.55;;;19.88;;
30533;SDS011;17318;52.390;9.754;2023-04-16T11:41:43;36.42;;;20.15;;
30533;SDS011;17318;52.390;9.754;2023-04-16T11:46:45;35.20;;;20.52;;
30533;SDS011;17318;52.390;9.754;2023-04-16T11:49:11;33.88;;;20.50;;
30533;SDS011;17318;52.390;9.754;2023-04-16T11:51:40;39.47;;;21.33;;
30533;SDS011;17318;52.390;9.754;2023-04-16T11:54:20;34.97;;;20.25;;
30533;SDS011;17318;52.390;9.754;2023-04-16T11:56:47;35.83;;;20.67;;
30533;SDS011;17318;52.390;9.754;2023-04-16T12:01:44;38.55;;;21.77;;
30533;SDS011;17318;52.390;9.754;2023-04-16T12:04:12;36.20;;;20.48;;
30533;SDS011;17318;52.390;9.754;2023-04-16T12:06:39;31.65;;;20.10;;
30533;SDS011;17318;52.390;9.754;2023-04-16T12:09:39;38.65;;;21.42;;
30533;SDS011;17318;52.390;9.754;2023-04-16T12:11:59;34.75;;;20.10;;
30533;SDS011;17318;52.390;9.754;2023-04-16T12:14:25;35.83;;;20.70;;
30533;SDS011;17318;52.390;9.754;2023-04-16T12:16:50;36.53;;;21.17;;
30533;SDS011;17318;52.390;9.754;2023-04-16T12:19:16;42.88;;;22.10;;
30533;SDS011;17318;52.390;9.754;2023-04-16T12:21:46;36.85;;;20.42;;
30533;SDS011;17318;52.390;9.754;2023-04-16T12:24:14;33.40;;;19.52;;
30533;SDS011;17318;52.390;9.754;2023-04-16T12:26:42;32.95;;;19.58;;
30533;SDS011;17318;52.390;9.754;2023-04-16T12:29:25;30.75;;;18.30;;
30533;SDS011;17318;52.390;9.754;2023-04-16T12:31:52;31.27;;;19.33;;
30533;SDS011;17318;52.390;9.754;2023-04-16T12:34:18;33.95;;;20.48;;
30533;SDS011;17318;52.390;9.754;2023-04-16T12:36:46;39.05;;;20.42;;
30533;SDS011;17318;52.390;9.754;2023-04-16T12:39:26;35.72;;;18.83;;
30533;SDS011;17318;52.390;9.754;2023-04-16T12:41:52;36.83;;;20.08;;
30533;SDS011;17318;52.390;9.754;2023-04-16T12:44:18;36.15;;;19.05;;
30533;SDS011;17318;52.390;9.754;2023-04-16T12:46:43;36.65;;;19.45;;
30533;SDS011;17318;52.390;9.754;2023-04-16T12:49:09;39.47;;;22.65;;
30533;SDS011;17318;52.390;9.754;2023-04-16T12:51:35;37.03;;;20.15;;
30533;SDS011;17318;52.390;9.754;2023-04-16T12:54:03;30.77;;;19.30;;
30533;SDS011;17318;52.390;9.754;2023-04-16T12:56:33;33.13;;;19.17;;
30533;SDS011;17318;52.390;9.754;2023-04-16T12:59:00;32.83;;;19.08;;
30533;SDS011;17318;52.390;9.754;2023-04-16T13:01:26;36.88;;;19.80;;
30533;SDS011;17318;52.390;9.754;2023-04-16T13:03:51;32.20;;;18.95;;
30533;SDS011;17318;52.390;9.754;2023-04-16T13:06:19;31.23;;;19.05;;
30533;SDS011;17318;52.390;9.754;2023-04-16T13:08:45;34.88;;;18.88;;
30533;SDS011;17318;52.390;9.754;2023-04-16T13:11:10;36.17;;;20.38;;
30533;SDS011;17318;52.390;9.754;2023-04-16T13:13:36;32.80;;;18.92;;
30533;SDS011;17318;52.390;9.754;2023-04-16T13:16:03;34.47;;;19.73;;
30533;SDS011;17318;52.390;9.754;2023-04-16T13:20:56;26.85;;;17.25;;
30533;SDS011;17318;52.390;9.754;2023-04-16T13:23:22;28.33;;;17.20;;
30533;SDS011;17318;52.390;9.754;2023-04-16T13:25:48;31.23;;;17.80;;
30533;SDS011;17318;52.390;9.754;2023-04-16T13:28:14;30.63;;;17.67;;
30533;SDS011;17318;52.390;9.754;2023-04-16T13:30:39;30.10;;;17.38;;
30533;SDS011;17318;52.390;9.754;2023-04-16T13:33:05;29.70;;;17.40;;
30533;SDS011;17318;52.390;9.754;2023-04-16T13:35:31;28.95;;;17.10;;
30533;SDS011;17318;52.390;9.754;2023-04-16T13:37:57;27.02;;;15.63;;
30533;SDS011;17318;52.390;9.754;2023-04-16T13:40:22;27.48;;;14.40;;
30533;SDS011;17318;52.390;9.754;2023-04-16T13:42:48;25.10;;;13.20;;
30533;SDS011;17318;52.390;9.754;2023-04-16T13:45:14;20.67;;;13.23;;
30533;SDS011;17318;52.390;9.754;2023-04-16T13:47:40;23.48;;;14.20;;
30533;SDS011;17318;52.390;9.754;2023-04-16T13:50:09;17.27;;;12.25;;
30533;SDS011;17318;52.390;9.754;2023-04-16T13:52:35;21.15;;;13.10;;
30533;SDS011;17318;52.390;9.754;2023-04-16T13:55:00;22.15;;;11.02;;
30533;SDS011;17318;52.390;9.754;2023-04-16T13:57:27;17.02;;;10.82;;
30533;SDS011;17318;52.390;9.754;2023-04-16T13:59:53;19.30;;;11.15;;
30533;SDS011;17318;52.390;9.754;2023-04-16T14:02:20;16.15;;;10.50;;
30533;SDS011;17318;52.390;9.754;2023-04-16T14:04:46;17.73;;;11.15;;
30533;SDS011;17318;52.390;9.754;2023-04-16T14:07:13;16.08;;;10.07;;
30533;SDS011;17318;52.390;9.754;2023-04-16T14:09:39;17.33;;;10.50;;
30533;SDS011;17318;52.390;9.754;2023-04-16T14:12:05;15.60;;;9.27;;
30533;SDS011;17318;52.390;9.754;2023-04-16T14:14:31;18.27;;;10.10;;
30533;SDS011;17318;52.390;9.754;2023-04-16T14:16:57;18.23;;;10.32;;
30533;SDS011;17318;52.390;9.754;2023-04-16T14:19:23;16.23;;;9.43;;
30533;SDS011;17318;52.390;9.754;2023-04-16T14:21:49;15.77;;;9.27;;
30533;SDS011;17318;52.390;9.754;2023-04-16T14:24:15;15.43;;;9.40;;
30533;SDS011;17318;52.390;9.754;2023-04-16T14:26:43;18.23;;;9.90;;
30533;SDS011;17318;52.390;9.754;2023-04-16T14:29:09;20.63;;;10.63;;
30533;SDS011;17318;52.390;9.754;2023-04-16T14:31:35;14.70;;;8.93;;
30533;SDS011;17318;52.390;9.754;2023-04-16T14:34:01;16.38;;;9.75;;
30533;SDS011;17318;52.390;9.754;2023-04-16T14:36:27;13.95;;;8.98;;
30533;SDS011;17318;52.390;9.754;2023-04-16T14:38:53;21.85;;;10.60;;
30533;SDS011;17318;52.390;9.754;2023-04-16T14:41:19;18.27;;;9.88;;
30533;SDS011;17318;52.390;9.754;2023-04-16T14:43:45;19.35;;;10.80;;
30533;SDS011;17318;52.390;9.754;2023-04-16T14:46:10;17.10;;;9.95;;